createdAt,value
2023-03-07T00:01:01.000Z,992.6
2023-03-07T00:02:17.000Z,992.7
2023-03-07T00:03:34.000Z,992.6
2023-03-07T00:06:06.000Z,992.6
2023-03-07T00:07:22.000Z,992.5
2023-03-07T00:08:38.000Z,992.6
2023-03-07T00:09:54.000Z,992.6
2023-03-07T00:11:10.000Z,992.5
2023-03-07T00:12:26.000Z,992.6
2023-03-07T00:13:42.000Z,992.5
2023-03-07T00:14:59.000Z,992.6
2023-03-07T00:16:15.000Z,992.6
2023-03-07T00:17:31.000Z,992.4
2023-03-07T00:18:47.000Z,992.4
2023-03-07T00:20:04.000Z,992.5
2023-03-07T00:21:20.000Z,992.5
2023-03-07T00:22:36.000Z,992.4
2023-03-07T00:23:52.000Z,992.5
2023-03-07T00:25:09.000Z,992.4
2023-03-07T00:26:24.000Z,992.5
2023-03-07T00:27:40.000Z,992.4
2023-03-07T00:28:56.000Z,992.5
2023-03-07T00:30:12.000Z,992.4
2023-03-07T00:31:29.000Z,992.4
2023-03-07T00:32:45.000Z,992.5
2023-03-07T00:34:01.000Z,992.4
2023-03-07T00:35:17.000Z,992.5
2023-03-07T00:36:34.000Z,992.4
2023-03-07T00:37:50.000Z,992.4
2023-03-07T00:39:06.000Z,992.4
2023-03-07T00:40:22.000Z,992.4
2023-03-07T00:41:39.000Z,992.4
2023-03-07T00:42:54.000Z,992.4
2023-03-07T00:44:10.000Z,992.4
2023-03-07T00:45:26.000Z,992.4
2023-03-07T00:46:43.000Z,992.3
2023-03-07T00:47:59.000Z,992.4
2023-03-07T00:49:15.000Z,992.3
2023-03-07T00:50:31.000Z,992.4
2023-03-07T00:51:48.000Z,992.3
2023-03-07T00:53:04.000Z,992.3
2023-03-07T00:54:20.000Z,992.3
2023-03-07T00:55:36.000Z,992.5
2023-03-07T00:56:52.000Z,992.3
2023-03-07T00:58:09.000Z,992.4
2023-03-07T00:59:24.000Z,992.4
2023-03-07T01:00:40.000Z,992.4
2023-03-07T01:01:56.000Z,992.4
2023-03-07T01:03:13.000Z,992.4
2023-03-07T01:04:29.000Z,992.4
2023-03-07T01:05:45.000Z,992.4
2023-03-07T01:07:01.000Z,992.4
2023-03-07T01:08:18.000Z,992.3
2023-03-07T01:09:34.000Z,992.4
2023-03-07T01:10:50.000Z,992.3
2023-03-07T01:12:06.000Z,992.5
2023-03-07T01:13:22.000Z,992.3
2023-03-07T01:14:39.000Z,992.3
2023-03-07T01:15:54.000Z,992.3
2023-03-07T01:17:10.000Z,992.2
2023-03-07T01:18:26.000Z,992.3
2023-03-07T01:19:43.000Z,992.2
2023-03-07T01:20:59.000Z,992.2
2023-03-07T01:22:15.000Z,992.2
2023-03-07T01:23:31.000Z,992.2
2023-03-07T01:24:48.000Z,992.2
2023-03-07T01:26:04.000Z,992.2
2023-03-07T01:27:20.000Z,992.1
2023-03-07T01:28:36.000Z,992.1
2023-03-07T01:29:53.000Z,992.1
2023-03-07T01:31:09.000Z,992.1
2023-03-07T01:32:25.000Z,992.1
2023-03-07T01:33:40.000Z,992.1
2023-03-07T01:34:57.000Z,992
2023-03-07T01:36:13.000Z,992
2023-03-07T01:37:29.000Z,991.9
2023-03-07T01:38:45.000Z,991.9
2023-03-07T01:40:01.000Z,991.9
2023-03-07T01:41:18.000Z,991.9
2023-03-07T01:42:34.000Z,991.9
2023-03-07T01:43:50.000Z,991.8
2023-03-07T01:45:06.000Z,991.8
2023-03-07T01:46:23.000Z,991.8
2023-03-07T01:47:39.000Z,991.8
2023-03-07T01:48:55.000Z,991.7
2023-03-07T01:50:10.000Z,991.8
2023-03-07T01:51:26.000Z,991.7
2023-03-07T01:52:42.000Z,991.7
2023-03-07T01:53:58.000Z,991.7
2023-03-07T01:55:14.000Z,991.7
2023-03-07T01:56:31.000Z,991.6
2023-03-07T01:57:47.000Z,991.6
2023-03-07T01:59:03.000Z,991.7
2023-03-07T02:00:19.000Z,991.6
2023-03-07T02:01:35.000Z,991.6
2023-03-07T02:02:52.000Z,991.6
2023-03-07T02:04:08.000Z,991.7
2023-03-07T02:05:24.000Z,991.6
2023-03-07T02:06:40.000Z,991.6
2023-03-07T02:07:56.000Z,991.6
2023-03-07T02:09:12.000Z,991.5
2023-03-07T02:10:28.000Z,991.6
2023-03-07T02:11:44.000Z,991.5
2023-03-07T02:13:01.000Z,991.5
2023-03-07T02:14:17.000Z,991.4
2023-03-07T02:15:33.000Z,991.4
2023-03-07T02:16:49.000Z,991.4
2023-03-07T02:18:06.000Z,991.4
2023-03-07T02:19:22.000Z,991.4
2023-03-07T02:20:38.000Z,991.4
2023-03-07T02:21:54.000Z,991.4
2023-03-07T02:23:10.000Z,991.4
2023-03-07T02:24:26.000Z,991.5
2023-03-07T02:25:42.000Z,991.4
2023-03-07T02:26:58.000Z,991.4
2023-03-07T02:28:14.000Z,991.4
2023-03-07T02:29:31.000Z,991.3
2023-03-07T02:30:47.000Z,991.3
2023-03-07T02:32:03.000Z,991.3
2023-03-07T02:33:19.000Z,991.4
2023-03-07T02:34:36.000Z,991.3
2023-03-07T02:35:52.000Z,991.4
2023-03-07T02:37:08.000Z,991.4
2023-03-07T02:38:24.000Z,991.3
2023-03-07T02:39:41.000Z,991.4
2023-03-07T02:40:56.000Z,991.3
2023-03-07T02:42:12.000Z,991.2
2023-03-07T02:43:28.000Z,991.3
2023-03-07T02:44:44.000Z,991.3
2023-03-07T02:46:01.000Z,991.2
2023-03-07T02:47:17.000Z,991.3
2023-03-07T02:48:33.000Z,991.3
2023-03-07T02:49:49.000Z,991.3
2023-03-07T02:52:22.000Z,991.2
2023-03-07T02:53:38.000Z,991.2
2023-03-07T02:54:54.000Z,991.2
2023-03-07T02:56:11.000Z,991.3
2023-03-07T02:57:26.000Z,991.3
2023-03-07T02:58:42.000Z,991.3
2023-03-07T02:59:58.000Z,991.3
2023-03-07T03:01:15.000Z,991.2
2023-03-07T03:02:31.000Z,991.2
2023-03-07T03:03:47.000Z,991.1
2023-03-07T03:06:19.000Z,991.2
2023-03-07T03:07:36.000Z,991.3
2023-03-07T03:08:52.000Z,991.2
2023-03-07T03:10:08.000Z,991.2
2023-03-07T03:11:24.000Z,991.2
2023-03-07T03:12:41.000Z,991.1
2023-03-07T03:13:56.000Z,991.2
2023-03-07T03:15:12.000Z,991.2
2023-03-07T03:16:28.000Z,991.2
2023-03-07T03:17:45.000Z,991.1
2023-03-07T03:19:01.000Z,991.1
2023-03-07T03:20:17.000Z,991.1
2023-03-07T03:21:33.000Z,991
2023-03-07T03:22:50.000Z,991.1
2023-03-07T03:24:06.000Z,991.1
2023-03-07T03:25:22.000Z,991.2
2023-03-07T03:26:38.000Z,991.1
2023-03-07T03:27:54.000Z,991
2023-03-07T03:29:11.000Z,991.1
2023-03-07T03:30:26.000Z,991.1
2023-03-07T03:31:42.000Z,991.1
2023-03-07T03:32:58.000Z,991.1
2023-03-07T03:34:15.000Z,991
2023-03-07T03:35:31.000Z,991
2023-03-07T03:36:47.000Z,991
2023-03-07T03:38:03.000Z,991
2023-03-07T03:39:20.000Z,991
2023-03-07T03:40:36.000Z,991
2023-03-07T03:41:52.000Z,991
2023-03-07T03:43:08.000Z,991
2023-03-07T03:44:25.000Z,991.1
2023-03-07T03:45:41.000Z,991
2023-03-07T03:46:56.000Z,990.9
2023-03-07T03:48:12.000Z,991
2023-03-07T03:49:28.000Z,991
2023-03-07T03:50:45.000Z,990.9
2023-03-07T03:52:01.000Z,991.1
2023-03-07T03:53:17.000Z,991
2023-03-07T03:54:33.000Z,991.1
2023-03-07T03:55:50.000Z,991.2
2023-03-07T03:57:06.000Z,991.2
2023-03-07T03:58:22.000Z,991.2
2023-03-07T03:59:38.000Z,991.3
2023-03-07T04:00:55.000Z,991.3
2023-03-07T04:02:11.000Z,991.3
2023-03-07T04:03:26.000Z,991.3
2023-03-07T04:04:42.000Z,991.3
2023-03-07T04:05:59.000Z,991.3
2023-03-07T04:07:15.000Z,991.3
2023-03-07T04:08:31.000Z,991.4
2023-03-07T04:09:47.000Z,991.4
2023-03-07T04:11:03.000Z,991.3
2023-03-07T04:12:20.000Z,991.4
2023-03-07T04:13:36.000Z,991.5
2023-03-07T04:14:52.000Z,991.3
2023-03-07T04:16:08.000Z,991.4
2023-03-07T04:17:25.000Z,991.5
2023-03-07T04:18:41.000Z,991.4
2023-03-07T04:19:56.000Z,991.4
2023-03-07T04:21:12.000Z,991.3
2023-03-07T04:22:29.000Z,991.3
2023-03-07T04:23:45.000Z,991.2
2023-03-07T04:25:01.000Z,991.3
2023-03-07T04:26:17.000Z,991.3
2023-03-07T04:27:34.000Z,991.3
2023-03-07T04:28:50.000Z,991.3
2023-03-07T04:30:06.000Z,991.2
2023-03-07T04:31:22.000Z,991.1
2023-03-07T04:32:38.000Z,991.2
2023-03-07T04:33:55.000Z,991.2
2023-03-07T04:35:11.000Z,991.2
2023-03-07T04:36:26.000Z,991.1
2023-03-07T04:37:42.000Z,991.1
2023-03-07T04:38:59.000Z,991.1
2023-03-07T04:40:15.000Z,990.9
2023-03-07T04:41:31.000Z,991
2023-03-07T04:42:47.000Z,991
2023-03-07T04:44:04.000Z,991
2023-03-07T04:45:20.000Z,991
2023-03-07T04:46:36.000Z,990.9
2023-03-07T04:47:52.000Z,991
2023-03-07T04:49:08.000Z,991
2023-03-07T04:50:23.000Z,990.9
2023-03-07T04:51:39.000Z,991
2023-03-07T04:52:54.000Z,990.9
2023-03-07T04:54:10.000Z,990.9
2023-03-07T04:55:26.000Z,991
2023-03-07T04:56:42.000Z,991
2023-03-07T04:57:58.000Z,991
2023-03-07T04:59:15.000Z,991
2023-03-07T05:00:31.000Z,991
2023-03-07T05:01:47.000Z,991
2023-03-07T05:03:03.000Z,991
2023-03-07T05:04:19.000Z,991
2023-03-07T05:05:36.000Z,991
2023-03-07T05:06:52.000Z,991
2023-03-07T05:08:08.000Z,991
2023-03-07T05:09:24.000Z,991
2023-03-07T05:10:40.000Z,990.9
2023-03-07T05:11:56.000Z,990.9
2023-03-07T05:13:12.000Z,990.9
2023-03-07T05:14:28.000Z,990.9
2023-03-07T05:15:45.071Z,991
2023-03-07T05:17:01.000Z,990.9
2023-03-07T05:18:17.000Z,990.9
2023-03-07T05:19:33.000Z,990.9
2023-03-07T05:20:50.000Z,991
2023-03-07T05:22:06.000Z,990.9
2023-03-07T05:23:22.000Z,990.9
2023-03-07T05:24:38.000Z,990.9
2023-03-07T05:25:54.000Z,990.9
2023-03-07T05:27:10.000Z,990.9
2023-03-07T05:28:26.000Z,990.9
2023-03-07T05:29:42.000Z,990.9
2023-03-07T05:30:58.000Z,990.8
2023-03-07T05:32:15.000Z,990.8
2023-03-07T05:33:31.000Z,990.9
2023-03-07T05:34:47.000Z,990.9
2023-03-07T05:36:03.000Z,990.7
2023-03-07T05:37:20.000Z,990.7
2023-03-07T05:38:36.000Z,990.8
2023-03-07T05:39:52.000Z,990.8
2023-03-07T05:41:08.000Z,990.7
2023-03-07T05:42:25.000Z,990.8
2023-03-07T05:43:40.000Z,990.8
2023-03-07T05:44:56.000Z,990.8
2023-03-07T05:46:12.000Z,990.8
2023-03-07T05:47:28.000Z,990.9
2023-03-07T05:48:45.000Z,990.8
2023-03-07T05:50:01.000Z,990.8
2023-03-07T05:51:17.000Z,990.8
2023-03-07T05:52:33.000Z,990.8
2023-03-07T05:53:50.000Z,990.7
2023-03-07T05:55:06.000Z,990.8
2023-03-07T05:56:22.000Z,990.7
2023-03-07T05:57:38.000Z,990.7
2023-03-07T05:58:55.000Z,990.7
2023-03-07T06:01:26.000Z,990.6
2023-03-07T06:02:42.000Z,990.7
2023-03-07T06:03:59.000Z,990.7
2023-03-07T06:05:15.000Z,990.7
2023-03-07T06:06:30.000Z,990.6
2023-03-07T06:07:46.000Z,990.6
2023-03-07T06:09:02.000Z,990.7
2023-03-07T06:10:19.000Z,990.6
2023-03-07T06:11:35.000Z,990.6
2023-03-07T06:12:51.000Z,990.6
2023-03-07T06:14:07.000Z,990.6
2023-03-07T06:15:24.000Z,990.6
2023-03-07T06:16:40.000Z,990.6
2023-03-07T06:17:56.000Z,990.6
2023-03-07T06:19:12.000Z,990.5
2023-03-07T06:20:29.000Z,990.6
2023-03-07T06:21:45.000Z,990.6
2023-03-07T06:23:00.000Z,990.6
2023-03-07T06:24:16.000Z,990.6
2023-03-07T06:25:33.000Z,990.6
2023-03-07T06:26:49.000Z,990.6
2023-03-07T06:28:05.000Z,990.6
2023-03-07T06:29:21.000Z,990.6
2023-03-07T06:30:37.000Z,990.6
2023-03-07T06:31:54.000Z,990.6
2023-03-07T06:33:10.000Z,990.6
2023-03-07T06:34:26.000Z,990.7
2023-03-07T06:35:42.000Z,990.6
2023-03-07T06:36:59.000Z,990.7
2023-03-07T06:38:15.000Z,990.6
2023-03-07T06:39:30.000Z,990.7
2023-03-07T06:40:46.000Z,990.6
2023-03-07T06:42:03.000Z,990.7
2023-03-07T06:43:19.000Z,990.6
2023-03-07T06:44:35.000Z,990.7
2023-03-07T06:45:51.000Z,990.6
2023-03-07T06:47:08.000Z,990.7
2023-03-07T06:48:24.000Z,990.6
2023-03-07T06:49:40.000Z,990.7
2023-03-07T06:50:56.000Z,990.7
2023-03-07T06:52:12.000Z,990.6
2023-03-07T06:54:45.000Z,990.7
2023-03-07T06:56:00.000Z,990.7
2023-03-07T06:57:16.000Z,990.7
2023-03-07T06:58:33.000Z,990.6
2023-03-07T06:59:49.000Z,990.7
2023-03-07T07:01:05.000Z,990.7
2023-03-07T07:02:21.000Z,990.7
2023-03-07T07:03:38.000Z,990.7
2023-03-07T07:04:54.000Z,990.7
2023-03-07T07:06:10.000Z,990.8
2023-03-07T07:07:26.000Z,990.7
2023-03-07T07:08:43.000Z,990.8
2023-03-07T07:09:59.000Z,990.7
2023-03-07T07:11:15.000Z,990.7
2023-03-07T07:12:30.000Z,990.8
2023-03-07T07:13:47.000Z,990.7
2023-03-07T07:15:03.000Z,990.7
2023-03-07T07:16:19.000Z,990.8
2023-03-07T07:17:35.000Z,990.7
2023-03-07T07:18:51.000Z,990.9
2023-03-07T07:21:24.000Z,990.9
2023-03-07T07:22:40.000Z,990.9
2023-03-07T07:23:56.000Z,990.9
2023-03-07T07:25:13.000Z,990.9
2023-03-07T07:26:29.000Z,991
2023-03-07T07:27:45.000Z,991.1
2023-03-07T07:29:00.000Z,991
2023-03-07T07:30:17.000Z,991.1
2023-03-07T07:31:33.000Z,991.1
2023-03-07T07:32:49.000Z,991.1
2023-03-07T07:34:05.000Z,991.2
2023-03-07T07:35:21.000Z,991.1
2023-03-07T07:36:36.000Z,991.1
2023-03-07T07:37:51.000Z,991.1
2023-03-07T07:39:06.000Z,991.2
2023-03-07T07:40:23.000Z,991.2
2023-03-07T07:41:39.000Z,991.1
2023-03-07T07:42:55.000Z,991.1
2023-03-07T07:44:11.000Z,991.1
2023-03-07T07:45:27.000Z,991.2
2023-03-07T07:46:44.000Z,991.2
2023-03-07T07:48:00.000Z,991.2
2023-03-07T07:49:16.000Z,991.1
2023-03-07T07:50:32.000Z,991.2
2023-03-07T07:51:49.000Z,991.1
2023-03-07T07:53:05.000Z,991.2
2023-03-07T07:54:21.000Z,991.2
2023-03-07T07:55:36.000Z,991.2
2023-03-07T07:56:53.000Z,991.2
2023-03-07T07:58:09.000Z,991.2
2023-03-07T07:59:25.000Z,991.2
2023-03-07T08:00:41.000Z,991.2
2023-03-07T08:01:58.000Z,991.1
2023-03-07T08:03:14.000Z,991.2
2023-03-07T08:04:29.000Z,991.1
2023-03-07T08:07:01.000Z,991.2
2023-03-07T08:08:17.000Z,991.1
2023-03-07T08:09:32.000Z,991.1
2023-03-07T08:10:47.000Z,991.1
2023-03-07T08:12:04.000Z,991.2
2023-03-07T08:13:20.000Z,991.2
2023-03-07T08:14:36.000Z,991.2
2023-03-07T08:15:52.000Z,991.1
2023-03-07T08:17:08.000Z,991.2
2023-03-07T08:18:25.000Z,991.1
2023-03-07T08:19:41.000Z,991.2
2023-03-07T08:20:57.000Z,991.2
2023-03-07T08:22:13.000Z,991.2
2023-03-07T08:23:30.000Z,991.2
2023-03-07T08:24:46.000Z,991.1
2023-03-07T08:26:02.000Z,991.2
2023-03-07T08:27:17.000Z,991.2
2023-03-07T08:28:34.000Z,991.1
2023-03-07T08:29:50.000Z,991.1
2023-03-07T08:31:06.000Z,991.2
2023-03-07T08:32:22.000Z,991.1
2023-03-07T08:33:39.000Z,991.2
2023-03-07T08:34:55.000Z,991.2
2023-03-07T08:36:11.000Z,991.1
2023-03-07T08:37:27.000Z,991.2
2023-03-07T08:38:43.000Z,991.2
2023-03-07T08:40:00.000Z,991.1
2023-03-07T08:41:16.000Z,991.1
2023-03-07T08:42:32.000Z,991.1
2023-03-07T08:43:47.000Z,991.2
2023-03-07T08:45:04.000Z,991.1
2023-03-07T08:46:20.000Z,991.1
2023-03-07T08:47:36.000Z,991.1
2023-03-07T08:48:52.000Z,991.1
2023-03-07T08:50:09.000Z,991.1
2023-03-07T08:51:24.000Z,991.1
2023-03-07T08:52:39.000Z,991.1
2023-03-07T08:53:54.000Z,991.1
2023-03-07T08:55:10.000Z,991.1
2023-03-07T08:57:42.000Z,991.1
2023-03-07T08:58:58.000Z,991.2
2023-03-07T09:00:15.000Z,991.2
2023-03-07T09:01:31.000Z,991.2
2023-03-07T09:02:47.000Z,991.1
2023-03-07T09:04:03.000Z,991.2
2023-03-07T09:05:19.000Z,991.3
2023-03-07T09:06:36.000Z,991.2
2023-03-07T09:07:52.000Z,991.3
2023-03-07T09:09:08.000Z,991.3
2023-03-07T09:10:24.000Z,991.2
2023-03-07T09:11:40.000Z,991.3
2023-03-07T09:12:56.000Z,991.3
2023-03-07T09:14:12.000Z,991.3
2023-03-07T09:15:28.000Z,991.3
2023-03-07T09:16:45.000Z,991.3
2023-03-07T09:18:01.000Z,991.2
2023-03-07T09:19:17.000Z,991.3
2023-03-07T09:20:33.000Z,991.3
2023-03-07T09:21:49.000Z,991.3
2023-03-07T09:23:04.000Z,991.3
2023-03-07T09:24:20.000Z,991.3
2023-03-07T09:25:36.000Z,991.3
2023-03-07T09:26:53.000Z,991.3
2023-03-07T09:28:09.000Z,991.4
2023-03-07T09:29:24.000Z,991.5
2023-03-07T09:30:39.000Z,991.4
2023-03-07T09:31:56.000Z,991.5
2023-03-07T09:33:12.000Z,991.5
2023-03-07T09:34:28.000Z,991.5
2023-03-07T09:35:44.000Z,991.5
2023-03-07T09:37:00.000Z,991.5
2023-03-07T09:38:17.000Z,991.5
2023-03-07T09:39:33.000Z,991.5
2023-03-07T09:40:49.000Z,991.4
2023-03-07T09:42:05.000Z,991.4
2023-03-07T09:43:22.000Z,991.5
2023-03-07T09:44:38.000Z,991.5
2023-03-07T09:45:54.000Z,991.5
2023-03-07T09:47:09.000Z,991.5
2023-03-07T09:48:26.000Z,991.4
2023-03-07T09:49:42.000Z,991.4
2023-03-07T09:50:58.000Z,991.5
2023-03-07T09:52:14.000Z,991.4
2023-03-07T09:53:31.000Z,991.4
2023-03-07T09:54:47.000Z,991.4
2023-03-07T09:56:03.000Z,991.4
2023-03-07T09:57:19.000Z,991.5
2023-03-07T09:58:35.000Z,991.4
2023-03-07T09:59:52.000Z,991.4
2023-03-07T10:01:08.000Z,991.4
2023-03-07T10:02:24.000Z,991.4
2023-03-07T10:03:39.000Z,991.4
2023-03-07T10:04:56.000Z,991.3
2023-03-07T10:06:12.000Z,991.3
2023-03-07T10:07:28.000Z,991.4
2023-03-07T10:08:43.000Z,991.4
2023-03-07T10:09:59.000Z,991.4
2023-03-07T10:11:15.000Z,991.3
2023-03-07T10:12:31.000Z,991.4
2023-03-07T10:13:47.000Z,991.3
2023-03-07T10:15:04.000Z,991.4
2023-03-07T10:16:19.000Z,991.3
2023-03-07T10:17:35.000Z,991.2
2023-03-07T10:18:50.000Z,991.3
2023-03-07T10:20:07.000Z,991.3
2023-03-07T10:21:22.000Z,991.3
2023-03-07T10:22:38.000Z,991.3
2023-03-07T10:23:54.000Z,991.3
2023-03-07T10:25:10.000Z,991.3
2023-03-07T10:26:27.000Z,991.3
2023-03-07T10:27:43.000Z,991.3
2023-03-07T10:28:59.000Z,991.2
2023-03-07T10:30:15.000Z,991.2
2023-03-07T10:31:32.000Z,991.2
2023-03-07T10:32:48.000Z,991.2
2023-03-07T10:34:04.000Z,991.3
2023-03-07T10:35:20.000Z,991.3
2023-03-07T10:36:37.000Z,991.3
2023-03-07T10:37:52.000Z,991.3
2023-03-07T10:39:08.000Z,991.3
2023-03-07T10:40:24.000Z,991.3
2023-03-07T10:41:41.000Z,991.3
2023-03-07T10:42:57.000Z,991.3
2023-03-07T10:44:12.000Z,991.2
2023-03-07T10:45:27.000Z,991.2
2023-03-07T10:46:43.000Z,991.2
2023-03-07T10:47:58.000Z,991.2
2023-03-07T10:49:14.000Z,991.2
2023-03-07T10:50:30.000Z,991.3
2023-03-07T10:51:47.000Z,991.3
2023-03-07T10:53:03.000Z,991.3
2023-03-07T10:54:19.000Z,991.2
2023-03-07T10:55:35.000Z,991.3
2023-03-07T10:56:51.000Z,991.2
2023-03-07T10:58:08.000Z,991.3
2023-03-07T10:59:24.000Z,991.2
2023-03-07T11:00:40.000Z,991.2
2023-03-07T11:01:56.000Z,991.2
2023-03-07T11:03:13.000Z,991.2
2023-03-07T11:04:28.000Z,991.2
2023-03-07T11:05:44.000Z,991.2
2023-03-07T11:07:00.000Z,991.2
2023-03-07T11:08:17.000Z,991.3
2023-03-07T11:09:33.000Z,991.2
2023-03-07T11:10:49.000Z,991.2
2023-03-07T11:12:05.000Z,991.2
2023-03-07T11:13:21.000Z,991.2
2023-03-07T11:14:36.000Z,991.3
2023-03-07T11:15:52.000Z,991.2
2023-03-07T11:17:07.000Z,991.2
2023-03-07T11:18:23.000Z,991.2
2023-03-07T11:19:39.000Z,991.2
2023-03-07T11:20:55.000Z,991.2
2023-03-07T11:22:11.000Z,991.2
2023-03-07T11:23:27.000Z,991.2
2023-03-07T11:24:44.000Z,991.2
2023-03-07T11:26:00.000Z,991.2
2023-03-07T11:27:16.000Z,991.2
2023-03-07T11:28:32.000Z,991.3
2023-03-07T11:29:49.000Z,991.1
2023-03-07T11:31:05.000Z,991.1
2023-03-07T11:32:21.000Z,991.2
2023-03-07T11:33:37.000Z,991.1
2023-03-07T11:34:53.000Z,991.2
2023-03-07T11:36:09.000Z,991.2
2023-03-07T11:37:25.000Z,991.2
2023-03-07T11:38:41.000Z,991.2
2023-03-07T11:39:58.000Z,991.3
2023-03-07T11:41:14.000Z,991.3
2023-03-07T11:42:30.000Z,991.3
2023-03-07T11:43:46.000Z,991.3
2023-03-07T11:45:02.000Z,991.3
2023-03-07T11:46:19.000Z,991.4
2023-03-07T11:47:35.000Z,991.3
2023-03-07T11:48:51.000Z,991.3
2023-03-07T11:50:07.000Z,991.3
2023-03-07T11:51:23.000Z,991.3
2023-03-07T11:52:39.000Z,991.3
2023-03-07T11:53:55.000Z,991.2
2023-03-07T11:55:11.000Z,991.2
2023-03-07T11:56:28.000Z,991.3
2023-03-07T11:57:44.000Z,991.3
2023-03-07T11:59:00.000Z,991.2
2023-03-07T12:00:16.000Z,991.3
2023-03-07T12:01:33.000Z,991.3
2023-03-07T12:02:49.000Z,991.3
2023-03-07T12:04:05.000Z,991.3
2023-03-07T12:05:21.000Z,991.3
2023-03-07T12:06:37.000Z,991.4
2023-03-07T12:07:53.000Z,991.3
2023-03-07T12:09:09.000Z,991.3
2023-03-07T12:10:25.000Z,991.4
2023-03-07T12:11:41.000Z,991.3
2023-03-07T12:12:58.000Z,991.4
2023-03-07T12:14:14.000Z,991.4
2023-03-07T12:15:30.000Z,991.4
2023-03-07T12:16:46.000Z,991.4
2023-03-07T12:18:03.000Z,991.4
2023-03-07T12:19:19.000Z,991.4
2023-03-07T12:20:35.000Z,991.4
2023-03-07T12:21:51.000Z,991.4
2023-03-07T12:23:08.000Z,991.4
2023-03-07T12:24:23.000Z,991.4
2023-03-07T12:25:39.000Z,991.4
2023-03-07T12:26:55.000Z,991.4
2023-03-07T12:28:11.000Z,991.4
2023-03-07T12:29:28.000Z,991.3
2023-03-07T12:30:44.000Z,991.4
2023-03-07T12:32:00.000Z,991.4
2023-03-07T12:33:16.000Z,991.3
2023-03-07T12:34:33.000Z,991.3
2023-03-07T12:35:49.000Z,991.4
2023-03-07T12:37:05.000Z,991.4
2023-03-07T12:38:21.000Z,991.3
2023-03-07T12:39:38.000Z,991.3
2023-03-07T12:40:53.000Z,991.2
2023-03-07T12:42:08.000Z,991.3
2023-03-07T12:43:23.000Z,991.3
2023-03-07T12:44:39.000Z,991.3
2023-03-07T12:45:55.000Z,991.3
2023-03-07T12:47:11.000Z,991.3
2023-03-07T12:48:27.000Z,991.3
2023-03-07T12:49:44.000Z,991.2
2023-03-07T12:51:00.000Z,991.3
2023-03-07T12:52:16.000Z,991.3
2023-03-07T12:53:32.000Z,991.3
2023-03-07T12:54:48.000Z,991.3
2023-03-07T12:56:05.000Z,991.2
2023-03-07T12:57:21.000Z,991.2
2023-03-07T12:58:37.000Z,991.2
2023-03-07T12:59:53.000Z,991.2
2023-03-07T13:01:09.000Z,991.2
2023-03-07T13:02:25.000Z,991.1
2023-03-07T13:03:41.000Z,991.2
2023-03-07T13:04:57.000Z,991.2
2023-03-07T13:06:14.000Z,991.1
2023-03-07T13:07:30.000Z,991.2
2023-03-07T13:08:46.000Z,991.1
2023-03-07T13:10:01.000Z,991.1
2023-03-07T13:11:17.000Z,991.1
2023-03-07T13:12:33.000Z,991.2
2023-03-07T13:13:49.000Z,991.2
2023-03-07T13:15:05.000Z,991.2
2023-03-07T13:16:22.000Z,991.2
2023-03-07T13:17:37.000Z,991.1
2023-03-07T13:18:52.000Z,991.2
2023-03-07T13:20:08.000Z,991.2
2023-03-07T13:21:25.000Z,991.2
2023-03-07T13:22:41.000Z,991.2
2023-03-07T13:23:57.000Z,991.2
2023-03-07T13:25:13.000Z,991.2
2023-03-07T13:26:29.000Z,991.2
2023-03-07T13:27:46.000Z,991.1
2023-03-07T13:29:02.000Z,991.1
2023-03-07T13:30:18.000Z,991.1
2023-03-07T13:31:34.000Z,991.2
2023-03-07T13:32:51.000Z,991.2
2023-03-07T13:34:07.000Z,991.1
2023-03-07T13:35:22.000Z,991.1
2023-03-07T13:36:38.000Z,991.1
2023-03-07T13:37:55.000Z,991.1
2023-03-07T13:39:11.000Z,991.1
2023-03-07T13:40:27.000Z,991.1
2023-03-07T13:41:43.000Z,991.1
2023-03-07T13:43:00.000Z,991.1
2023-03-07T13:44:16.000Z,991.1
2023-03-07T13:45:32.000Z,991.1
2023-03-07T13:46:48.000Z,991.1
2023-03-07T13:48:04.000Z,991.1
2023-03-07T13:49:21.000Z,991.1
2023-03-07T13:50:37.000Z,991.1
2023-03-07T13:51:52.000Z,991.1
2023-03-07T13:53:08.000Z,991.2
2023-03-07T13:54:25.000Z,991.1
2023-03-07T13:55:41.000Z,991.1
2023-03-07T13:56:57.000Z,991.1
2023-03-07T13:58:13.000Z,991.1
2023-03-07T13:59:30.000Z,991
2023-03-07T14:00:46.000Z,991.1
2023-03-07T14:02:02.000Z,991
2023-03-07T14:03:18.000Z,991
2023-03-07T14:04:34.000Z,991.1
2023-03-07T14:05:51.000Z,991.1
2023-03-07T14:07:07.000Z,991
2023-03-07T14:08:22.000Z,991
2023-03-07T14:09:38.000Z,991
2023-03-07T14:10:55.000Z,991
2023-03-07T14:12:11.000Z,991.1
2023-03-07T14:13:27.000Z,991.1
2023-03-07T14:14:43.000Z,991.1
2023-03-07T14:16:00.000Z,991.1
2023-03-07T14:17:16.000Z,991.2
2023-03-07T14:18:32.000Z,991.2
2023-03-07T14:19:48.000Z,991.2
2023-03-07T14:21:05.000Z,991.2
2023-03-07T14:22:21.000Z,991.2
2023-03-07T14:23:37.000Z,991.2
2023-03-07T14:24:52.000Z,991.1
2023-03-07T14:26:09.000Z,991.1
2023-03-07T14:27:25.000Z,991.1
2023-03-07T14:28:41.000Z,991.2
2023-03-07T14:29:57.000Z,991.2
2023-03-07T14:31:13.000Z,991.3
2023-03-07T14:32:30.000Z,991.4
2023-03-07T14:33:46.000Z,991.5
2023-03-07T14:35:02.000Z,991.4
2023-03-07T14:36:17.000Z,991.5
2023-03-07T14:37:34.000Z,991.5
2023-03-07T14:38:50.000Z,991.5
2023-03-07T14:40:06.000Z,991.5
2023-03-07T14:41:22.000Z,991.6
2023-03-07T14:42:39.000Z,991.6
2023-03-07T14:43:55.000Z,991.7
2023-03-07T14:45:11.000Z,991.7
2023-03-07T14:46:27.000Z,991.7
2023-03-07T14:47:44.000Z,991.7
2023-03-07T14:48:59.000Z,991.7
2023-03-07T14:50:14.000Z,991.7
2023-03-07T14:51:30.000Z,991.7
2023-03-07T14:52:46.000Z,991.8
2023-03-07T14:54:03.000Z,991.9
2023-03-07T14:55:19.000Z,991.8
2023-03-07T14:56:35.000Z,991.8
2023-03-07T14:57:50.000Z,991.8
2023-03-07T14:59:06.000Z,991.9
2023-03-07T15:00:22.000Z,991.8
2023-03-07T15:01:38.000Z,991.9
2023-03-07T15:02:54.000Z,991.8
2023-03-07T15:04:11.000Z,991.8
2023-03-07T15:05:27.000Z,991.8
2023-03-07T15:06:43.000Z,991.8
2023-03-07T15:07:59.000Z,991.7
2023-03-07T15:09:16.000Z,991.8
2023-03-07T15:10:32.000Z,991.9
2023-03-07T15:11:48.000Z,991.8
2023-03-07T15:13:04.000Z,991.8
2023-03-07T15:14:21.000Z,991.9
2023-03-07T15:15:36.000Z,991.9
2023-03-07T15:16:52.000Z,991.9
2023-03-07T15:18:08.000Z,991.9
2023-03-07T15:19:24.000Z,991.9
2023-03-07T15:20:41.000Z,991.9
2023-03-07T15:21:57.000Z,992
2023-03-07T15:23:13.000Z,991.9
2023-03-07T15:24:29.000Z,992
2023-03-07T15:25:46.000Z,991.9
2023-03-07T15:27:02.000Z,991.9
2023-03-07T15:28:18.000Z,991.9
2023-03-07T15:29:34.000Z,992
2023-03-07T15:30:51.000Z,992
2023-03-07T15:32:06.000Z,992.1
2023-03-07T15:33:22.000Z,992.1
2023-03-07T15:34:38.000Z,992.1
2023-03-07T15:35:55.000Z,992.1
2023-03-07T15:37:11.000Z,992
2023-03-07T15:38:27.000Z,992
2023-03-07T15:39:43.000Z,992
2023-03-07T15:40:59.000Z,992.1
2023-03-07T15:42:16.000Z,992
2023-03-07T15:43:32.000Z,992.1
2023-03-07T15:44:48.000Z,992.1
2023-03-07T15:46:04.000Z,992.1
2023-03-07T15:47:21.000Z,992.1
2023-03-07T15:48:36.000Z,992
2023-03-07T15:49:52.000Z,992.1
2023-03-07T15:51:08.000Z,992
2023-03-07T15:52:24.000Z,992.1
2023-03-07T15:53:39.000Z,992.1
2023-03-07T15:54:55.000Z,991.9
2023-03-07T15:56:11.000Z,992
2023-03-07T15:57:28.000Z,992
2023-03-07T15:58:43.000Z,992
2023-03-07T15:59:58.000Z,992
2023-03-07T16:01:14.000Z,992
2023-03-07T16:02:31.000Z,992
2023-03-07T16:03:47.000Z,991.9
2023-03-07T16:05:03.000Z,992
2023-03-07T16:06:19.000Z,992
2023-03-07T16:07:36.000Z,991.9
2023-03-07T16:08:52.000Z,991.9
2023-03-07T16:10:08.000Z,992
2023-03-07T16:11:24.000Z,992
2023-03-07T16:12:40.000Z,992
2023-03-07T16:13:57.000Z,992
2023-03-07T16:15:13.000Z,992
2023-03-07T16:16:28.000Z,992
2023-03-07T16:17:44.000Z,992
2023-03-07T16:19:01.000Z,992.1
2023-03-07T16:20:17.000Z,992
2023-03-07T16:21:33.000Z,992.1
2023-03-07T16:22:49.000Z,992.1
2023-03-07T16:24:06.000Z,992.1
2023-03-07T16:25:22.000Z,992.1
2023-03-07T16:26:38.000Z,992.1
2023-03-07T16:27:54.000Z,992.1
2023-03-07T16:29:10.000Z,992.1
2023-03-07T16:30:27.000Z,992.1
2023-03-07T16:31:43.000Z,992.1
2023-03-07T16:32:58.000Z,992.1
2023-03-07T16:34:14.000Z,992.1
2023-03-07T16:35:31.000Z,992.1
2023-03-07T16:36:47.000Z,992